Terminal Aerodrome Forecast
Issued by NWS

Home | Current Version | Previous Version | Text Only | Print | Product List | Glossary On
Versions: 1 2 3 4 5 6 7 8 9 10 11 12 13 14
115
FTUS46 KHNX 131500 AAA
TAFFAT
TAF AMD
KFAT 131500Z 1315/1412 00000KT 4SM BR SCT002
      TEMPO 1315/1316 2SM BR BKN002
     FM131700 VRB03KT 5SM HZ SCT200
     FM132100 31008KT P6SM SKC
     FM140600 VRB03KT P6SM SKC=

USA.gov is the U.S. government's official web portal to all federal, state and local government web resources and services.